sensor_id;sensor_type;location;lat;lon;timestamp;pressure;altitude;pressure_sealevel;temperature;humidity
7407;BME280;3745;56.964;24.128;2023-08-06T00:00:14;101124.06;;;18.97;100.00
7407;BME280;3745;56.964;24.128;2023-08-06T00:02:39;101095.84;;;18.97;100.00
7407;BME280;3745;56.964;24.128;2023-08-06T00:05:05;101067.88;;;18.81;100.00
7407;BME280;3745;56.964;24.128;2023-08-06T00:07:31;101063.13;;;18.57;100.00
7407;BME280;3745;56.964;24.128;2023-08-06T00:09:57;101140.31;;;18.95;100.00
7407;BME280;3745;56.964;24.128;2023-08-06T00:12:22;101158.31;;;18.92;100.00
7407;BME280;3745;56.964;24.128;2023-08-06T00:14:51;101120.88;;;18.82;100.00
7407;BME280;3745;56.964;24.128;2023-08-06T00:17:17;101144.53;;;19.00;100.00
7407;BME280;3745;56.964;24.128;2023-08-06T00:19:43;101079.03;;;18.79;100.00
7407;BME280;3745;56.964;24.128;2023-08-06T00:22:09;101094.78;;;19.08;100.00
7407;BME280;3745;56.964;24.128;2023-08-06T00:24:35;101081.50;;;18.83;100.00
7407;BME280;3745;56.964;24.128;2023-08-06T00:27:01;101114.50;;;19.05;100.00
7407;BME280;3745;56.964;24.128;2023-08-06T00:29:26;101120.47;;;19.07;100.00
7407;BME280;3745;56.964;24.128;2023-08-06T00:31:52;101081.47;;;18.86;100.00
7407;BME280;3745;56.964;24.128;2023-08-06T00:34:18;101065.38;;;18.77;100.00
7407;BME280;3745;56.964;24.128;2023-08-06T00:36:43;101110.31;;;19.01;100.00
7407;BME280;3745;56.964;24.128;2023-08-06T00:39:09;101103.44;;;19.03;100.00
7407;BME280;3745;56.964;24.128;2023-08-06T00:41:34;101020.25;;;18.65;100.00
7407;BME280;3745;56.964;24.128;2023-08-06T00:44:00;101080.41;;;18.98;100.00
7407;BME280;3745;56.964;24.128;2023-08-06T00:46:26;101084.81;;;18.91;100.00
7407;BME280;3745;56.964;24.128;2023-08-06T00:48:52;101050.88;;;18.74;100.00
7407;BME280;3745;56.964;24.128;2023-08-06T00:51:17;101018.44;;;18.70;100.00
7407;BME280;3745;56.964;24.128;2023-08-06T00:53:44;101041.31;;;18.84;100.00
7407;BME280;3745;56.964;24.128;2023-08-06T00:56:10;100999.75;;;18.65;100.00
7407;BME280;3745;56.964;24.128;2023-08-06T00:58:36;101003.06;;;18.73;100.00
7407;BME280;3745;56.964;24.128;2023-08-06T01:01:02;100945.47;;;18.39;100.00
7407;BME280;3745;56.964;24.128;2023-08-06T01:03:28;101016.72;;;18.72;100.00
7407;BME280;3745;56.964;24.128;2023-08-06T01:05:53;101014.97;;;18.74;100.00
7407;BME280;3745;56.964;24.128;2023-08-06T01:11:26;100998.84;;;18.68;100.00
7407;BME280;3745;56.964;24.128;2023-08-06T01:13:47;101011.50;;;18.78;100.00
7407;BME280;3745;56.964;24.128;2023-08-06T01:16:16;101003.72;;;18.83;100.00
7407;BME280;3745;56.964;24.128;2023-08-06T01:18:42;101002.91;;;18.82;100.00
7407;BME280;3745;56.964;24.128;2023-08-06T01:21:15;100995.19;;;18.82;100.00
7407;BME280;3745;56.964;24.128;2023-08-06T01:23:42;100928.22;;;18.50;100.00
7407;BME280;3745;56.964;24.128;2023-08-06T01:31:37;100914.50;;;18.54;100.00
7407;BME280;3745;56.964;24.128;2023-08-06T01:34:07;100958.28;;;18.89;100.00
7407;BME280;3745;56.964;24.128;2023-08-06T01:36:35;100923.69;;;18.66;100.00
7407;BME280;3745;56.964;24.128;2023-08-06T01:39:01;100919.22;;;18.75;100.00
7407;BME280;3745;56.964;24.128;2023-08-06T01:41:27;100955.88;;;18.80;100.00
7407;BME280;3745;56.964;24.128;2023-08-06T01:43:52;100972.97;;;18.81;100.00
7407;BME280;3745;56.964;24.128;2023-08-06T01:46:18;100950.38;;;18.54;100.00
7407;BME280;3745;56.964;24.128;2023-08-06T01:48:44;101020.78;;;18.85;100.00
7407;BME280;3745;56.964;24.128;2023-08-06T01:51:09;101031.91;;;18.84;100.00
7407;BME280;3745;56.964;24.128;2023-08-06T01:53:35;101011.34;;;18.87;100.00
7407;BME280;3745;56.964;24.128;2023-08-06T01:56:00;100967.91;;;18.78;100.00
7407;BME280;3745;56.964;24.128;2023-08-06T01:58:26;100980.50;;;18.90;100.00
7407;BME280;3745;56.964;24.128;2023-08-06T02:00:51;100983.94;;;18.89;100.00
7407;BME280;3745;56.964;24.128;2023-08-06T02:03:17;101001.09;;;18.87;100.00
7407;BME280;3745;56.964;24.128;2023-08-06T02:05:43;100982.53;;;18.73;100.00
7407;BME280;3745;56.964;24.128;2023-08-06T02:08:08;101006.91;;;18.95;100.00
7407;BME280;3745;56.964;24.128;2023-08-06T02:10:34;100973.94;;;18.74;100.00
7407;BME280;3745;56.964;24.128;2023-08-06T02:13:00;100967.09;;;18.76;100.00
7407;BME280;3745;56.964;24.128;2023-08-06T02:15:25;100991.34;;;19.06;100.00
7407;BME280;3745;56.964;24.128;2023-08-06T02:17:51;100905.09;;;18.55;100.00
7407;BME280;3745;56.964;24.128;2023-08-06T02:20:17;100978.47;;;19.08;100.00
7407;BME280;3745;56.964;24.128;2023-08-06T02:22:42;100881.22;;;18.51;100.00
7407;BME280;3745;56.964;24.128;2023-08-06T02:25:08;100971.56;;;19.13;100.00
7407;BME280;3745;56.964;24.128;2023-08-06T02:27:34;100969.97;;;19.06;100.00
7407;BME280;3745;56.964;24.128;2023-08-06T02:29:59;100980.22;;;19.06;100.00
7407;BME280;3745;56.964;24.128;2023-08-06T02:32:25;100976.84;;;19.04;100.00
7407;BME280;3745;56.964;24.128;2023-08-06T02:34:51;100889.66;;;18.56;100.00
7407;BME280;3745;56.964;24.128;2023-08-06T02:37:16;100963.13;;;19.05;100.00
7407;BME280;3745;56.964;24.128;2023-08-06T02:39:42;100900.41;;;18.76;100.00
7407;BME280;3745;56.964;24.128;2023-08-06T02:42:08;100887.75;;;18.67;100.00
7407;BME280;3745;56.964;24.128;2023-08-06T02:44:35;100956.16;;;19.13;100.00
7407;BME280;3745;56.964;24.128;2023-08-06T02:47:01;100904.59;;;18.80;100.00
7407;BME280;3745;56.964;24.128;2023-08-06T02:49:27;100944.44;;;19.00;100.00
7407;BME280;3745;56.964;24.128;2023-08-06T02:51:52;100902.03;;;18.80;100.00
7407;BME280;3745;56.964;24.128;2023-08-06T02:54:18;100951.25;;;19.01;100.00
7407;BME280;3745;56.964;24.128;2023-08-06T02:56:45;100974.91;;;19.15;100.00
7407;BME280;3745;56.964;24.128;2023-08-06T02:59:11;100914.91;;;18.79;100.00
7407;BME280;3745;56.964;24.128;2023-08-06T03:01:36;100954.50;;;19.09;100.00
7407;BME280;3745;56.964;24.128;2023-08-06T03:04:02;100971.56;;;19.13;100.00
7407;BME280;3745;56.964;24.128;2023-08-06T03:06:28;100910.69;;;18.76;100.00
7407;BME280;3745;56.964;24.128;2023-08-06T03:08:54;100926.94;;;18.75;100.00
7407;BME280;3745;56.964;24.128;2023-08-06T03:11:19;100988.78;;;19.05;100.00
7407;BME280;3745;56.964;24.128;2023-08-06T03:13:45;100988.66;;;19.12;100.00
7407;BME280;3745;56.964;24.128;2023-08-06T03:16:10;100927.72;;;18.77;100.00
7407;BME280;3745;56.964;24.128;2023-08-06T03:18:36;100963.25;;;18.99;100.00
7407;BME280;3745;56.964;24.128;2023-08-06T03:21:01;100900.44;;;18.75;100.00
7407;BME280;3745;56.964;24.128;2023-08-06T03:23:27;100837.66;;;18.48;100.00
7407;BME280;3745;56.964;24.128;2023-08-06T03:25:52;100957.66;;;19.23;100.00
7407;BME280;3745;56.964;24.128;2023-08-06T03:28:18;100920.41;;;19.04;100.00
7407;BME280;3745;56.964;24.128;2023-08-06T03:30:43;100894.94;;;18.94;100.00
7407;BME280;3745;56.964;24.128;2023-08-06T03:33:09;100941.31;;;19.27;100.00
7407;BME280;3745;56.964;24.128;2023-08-06T03:35:35;100872.66;;;18.97;100.00
7407;BME280;3745;56.964;24.128;2023-08-06T03:38:00;100923.09;;;19.39;100.00
7407;BME280;3745;56.964;24.128;2023-08-06T03:40:26;100917.94;;;19.42;100.00
7407;BME280;3745;56.964;24.128;2023-08-06T03:42:51;100870.66;;;19.11;100.00
7407;BME280;3745;56.964;24.128;2023-08-06T03:45:17;100924.88;;;19.37;100.00
7407;BME280;3745;56.964;24.128;2023-08-06T03:47:43;100889.38;;;19.16;100.00
7407;BME280;3745;56.964;24.128;2023-08-06T03:50:08;100912.97;;;19.33;100.00
7407;BME280;3745;56.964;24.128;2023-08-06T03:52:34;100912.84;;;19.39;100.00
7407;BME280;3745;56.964;24.128;2023-08-06T03:55:00;100916.13;;;19.47;100.00
7407;BME280;3745;56.964;24.128;2023-08-06T03:57:25;100878.84;;;19.28;100.00
7407;BME280;3745;56.964;24.128;2023-08-06T03:59:51;100870.00;;;19.44;100.00
7407;BME280;3745;56.964;24.128;2023-08-06T04:02:16;100856.50;;;19.33;100.00
7407;BME280;3745;56.964;24.128;2023-08-06T04:04:42;100893.56;;;19.61;100.00
7407;BME280;3745;56.964;24.128;2023-08-06T04:07:08;100841.16;;;19.30;100.00
7407;BME280;3745;56.964;24.128;2023-08-06T04:09:33;100842.72;;;19.37;100.00
7407;BME280;3745;56.964;24.128;2023-08-06T04:11:59;100871.47;;;19.54;100.00
7407;BME280;3745;56.964;24.128;2023-08-06T04:14:27;100733.03;;;18.68;100.00
7407;BME280;3745;56.964;24.128;2023-08-06T04:16:53;100845.84;;;19.51;100.00
7407;BME280;3745;56.964;24.128;2023-08-06T04:19:18;100870.31;;;19.66;100.00
7407;BME280;3745;56.964;24.128;2023-08-06T04:21:44;100861.31;;;19.48;100.00
7407;BME280;3745;56.964;24.128;2023-08-06T04:24:09;100911.31;;;19.72;100.00
7407;BME280;3745;56.964;24.128;2023-08-06T04:26:35;100886.59;;;19.66;100.00
7407;BME280;3745;56.964;24.128;2023-08-06T04:29:00;100891.38;;;19.81;100.00
7407;BME280;3745;56.964;24.128;2023-08-06T04:31:26;100759.31;;;19.18;100.00
7407;BME280;3745;56.964;24.128;2023-08-06T04:33:52;100848.53;;;19.83;100.00
7407;BME280;3745;56.964;24.128;2023-08-06T04:36:17;100804.69;;;19.54;100.00
7407;BME280;3745;56.964;24.128;2023-08-06T04:38:43;100824.81;;;19.72;100.00
7407;BME280;3745;56.964;24.128;2023-08-06T04:41:11;100843.25;;;19.89;100.00
7407;BME280;3745;56.964;24.128;2023-08-06T04:43:37;100858.06;;;20.14;100.00
7407;BME280;3745;56.964;24.128;2023-08-06T04:46:02;100840.78;;;20.19;100.00
7407;BME280;3745;56.964;24.128;2023-08-06T04:48:28;100816.31;;;20.06;100.00
7407;BME280;3745;56.964;24.128;2023-08-06T04:50:53;100761.44;;;19.74;100.00
7407;BME280;3745;56.964;24.128;2023-08-06T04:53:20;100810.41;;;20.02;100.00
7407;BME280;3745;56.964;24.128;2023-08-06T04:55:46;100830.44;;;20.22;100.00
7407;BME280;3745;56.964;24.128;2023-08-06T04:58:12;100818.41;;;20.24;100.00
7407;BME280;3745;56.964;24.128;2023-08-06T05:00:38;100753.81;;;19.70;100.00
7407;BME280;3745;56.964;24.128;2023-08-06T05:03:06;100815.63;;;19.97;100.00
7407;BME280;3745;56.964;24.128;2023-08-06T05:05:32;100835.50;;;19.91;100.00
7407;BME280;3745;56.964;24.128;2023-08-06T05:07:57;100844.66;;;20.02;100.00
7407;BME280;3745;56.964;24.128;2023-08-06T05:10:27;100802.06;;;19.92;100.00
7407;BME280;3745;56.964;24.128;2023-08-06T05:12:53;100801.75;;;20.05;100.00
7407;BME280;3745;56.964;24.128;2023-08-06T05:15:19;100817.19;;;20.05;100.00
7407;BME280;3745;56.964;24.128;2023-08-06T05:17:45;100794.00;;;20.06;100.00
7407;BME280;3745;56.964;24.128;2023-08-06T05:20:11;100798.00;;;20.18;100.00
7407;BME280;3745;56.964;24.128;2023-08-06T05:22:36;100748.50;;;19.77;100.00
7407;BME280;3745;56.964;24.128;2023-08-06T05:25:02;100792.94;;;20.15;100.00
7407;BME280;3745;56.964;24.128;2023-08-06T05:27:28;100779.78;;;20.27;100.00
7407;BME280;3745;56.964;24.128;2023-08-06T05:29:56;100756.78;;;20.21;100.00
7407;BME280;3745;56.964;24.128;2023-08-06T05:32:22;100755.09;;;20.20;100.00
7407;BME280;3745;56.964;24.128;2023-08-06T05:34:48;100719.53;;;20.05;100.00
7407;BME280;3745;56.964;24.128;2023-08-06T05:37:13;100748.03;;;20.28;100.00
7407;BME280;3745;56.964;24.128;2023-08-06T05:39:39;100764.75;;;20.44;100.00
7407;BME280;3745;56.964;24.128;2023-08-06T05:42:05;100761.03;;;20.54;100.00
7407;BME280;3745;56.964;24.128;2023-08-06T05:44:31;100752.50;;;20.52;100.00
7407;BME280;3745;56.964;24.128;2023-08-06T05:46:56;100755.38;;;20.72;100.00
7407;BME280;3745;56.964;24.128;2023-08-06T05:49:22;100720.56;;;20.61;100.00
7407;BME280;3745;56.964;24.128;2023-08-06T05:51:47;100754.81;;;20.90;100.00
7407;BME280;3745;56.964;24.128;2023-08-06T05:54:14;100705.53;;;20.76;100.00
7407;BME280;3745;56.964;24.128;2023-08-06T05:56:39;100696.53;;;20.89;100.00
7407;BME280;3745;56.964;24.128;2023-08-06T05:59:05;100745.13;;;21.28;100.00
7407;BME280;3745;56.964;24.128;2023-08-06T06:01:30;100728.06;;;21.24;100.00
7407;BME280;3745;56.964;24.128;2023-08-06T06:03:56;100727.69;;;21.36;100.00
7407;BME280;3745;56.964;24.128;2023-08-06T06:06:21;100725.53;;;21.50;100.00
7407;BME280;3745;56.964;24.128;2023-08-06T06:08:47;100725.41;;;21.53;100.00
7407;BME280;3745;56.964;24.128;2023-08-06T06:11:12;100695.03;;;21.38;100.00
7407;BME280;3745;56.964;24.128;2023-08-06T06:13:38;100718.63;;;21.75;100.00
7407;BME280;3745;56.964;24.128;2023-08-06T06:16:04;100703.28;;;21.72;100.00
7407;BME280;3745;56.964;24.128;2023-08-06T06:18:30;100683.47;;;21.74;100.00
7407;BME280;3745;56.964;24.128;2023-08-06T06:20:56;100713.91;;;21.89;100.00
7407;BME280;3745;56.964;24.128;2023-08-06T06:23:21;100709.03;;;21.80;100.00
7407;BME280;3745;56.964;24.128;2023-08-06T06:25:48;100654.66;;;21.63;100.00
7407;BME280;3745;56.964;24.128;2023-08-06T06:28:14;100671.59;;;21.70;100.00
7407;BME280;3745;56.964;24.128;2023-08-06T06:30:41;100711.75;;;22.02;100.00
7407;BME280;3745;56.964;24.128;2023-08-06T06:33:07;100709.59;;;22.14;100.00
7407;BME280;3745;56.964;24.128;2023-08-06T06:35:33;100713.34;;;22.29;100.00
7407;BME280;3745;56.964;24.128;2023-08-06T06:37:59;100676.28;;;22.08;100.00
7407;BME280;3745;56.964;24.128;2023-08-06T06:40:25;100645.09;;;21.91;100.00
7407;BME280;3745;56.964;24.128;2023-08-06T06:42:51;100640.63;;;21.96;100.00
7407;BME280;3745;56.964;24.128;2023-08-06T06:45:16;100713.22;;;22.55;100.00
7407;BME280;3745;56.964;24.128;2023-08-06T06:47:42;100682.56;;;22.48;100.00
7407;BME280;3745;56.964;24.128;2023-08-06T06:50:08;100699.16;;;22.64;100.00
7407;BME280;3745;56.964;24.128;2023-08-06T06:52:33;100690.72;;;22.59;100.00
7407;BME280;3745;56.964;24.128;2023-08-06T06:54:59;100686.03;;;22.47;100.00
7407;BME280;3745;56.964;24.128;2023-08-06T06:57:25;100689.94;;;22.57;100.00
7407;BME280;3745;56.964;24.128;2023-08-06T06:59:50;100699.16;;;22.86;100.00
7407;BME280;3745;56.964;24.128;2023-08-06T07:02:16;100701.22;;;22.78;100.00
7407;BME280;3745;56.964;24.128;2023-08-06T07:04:41;100690.25;;;22.94;100.00
7407;BME280;3745;56.964;24.128;2023-08-06T07:07:07;100671.09;;;22.78;100.00
7407;BME280;3745;56.964;24.128;2023-08-06T07:09:32;100642.06;;;22.50;100.00
7407;BME280;3745;56.964;24.128;2023-08-06T07:11:58;100686.09;;;22.90;100.00
7407;BME280;3745;56.964;24.128;2023-08-06T07:14:28;100683.56;;;23.10;100.00
7407;BME280;3745;56.964;24.128;2023-08-06T07:16:54;100642.97;;;22.92;100.00
7407;BME280;3745;56.964;24.128;2023-08-06T07:19:20;100658.09;;;23.01;100.00
7407;BME280;3745;56.964;24.128;2023-08-06T07:21:46;100661.78;;;23.38;100.00
7407;BME280;3745;56.964;24.128;2023-08-06T07:24:11;100644.75;;;23.54;100.00
7407;BME280;3745;56.964;24.128;2023-08-06T07:26:37;100636.47;;;23.66;100.00
7407;BME280;3745;56.964;24.128;2023-08-06T07:29:03;100636.22;;;23.72;100.00
7407;BME280;3745;56.964;24.128;2023-08-06T07:31:28;100624.91;;;23.74;100.00
7407;BME280;3745;56.964;24.128;2023-08-06T07:33:54;100640.72;;;23.87;100.00
7407;BME280;3745;56.964;24.128;2023-08-06T07:36:20;100621.72;;;23.88;100.00
7407;BME280;3745;56.964;24.128;2023-08-06T07:38:45;100631.38;;;24.03;100.00
7407;BME280;3745;56.964;24.128;2023-08-06T07:41:11;100634.75;;;24.05;100.00
7407;BME280;3745;56.964;24.128;2023-08-06T07:43:37;100635.69;;;24.03;100.00
7407;BME280;3745;56.964;24.128;2023-08-06T07:46:02;100627.88;;;24.04;100.00
7407;BME280;3745;56.964;24.128;2023-08-06T07:48:28;100635.25;;;24.13;100.00
7407;BME280;3745;56.964;24.128;2023-08-06T07:50:55;100613.06;;;24.08;100.00
7407;BME280;3745;56.964;24.128;2023-08-06T07:53:24;100632.25;;;24.22;100.00
7407;BME280;3745;56.964;24.128;2023-08-06T07:55:53;100587.63;;;23.99;100.00
7407;BME280;3745;56.964;24.128;2023-08-06T07:58:20;100621.06;;;24.41;100.00
7407;BME280;3745;56.964;24.128;2023-08-06T08:00:46;100615.81;;;24.61;100.00
7407;BME280;3745;56.964;24.128;2023-08-06T08:03:15;100572.22;;;24.52;100.00
7407;BME280;3745;56.964;24.128;2023-08-06T08:05:42;100558.06;;;24.59;100.00
7407;BME280;3745;56.964;24.128;2023-08-06T08:08:08;100610.88;;;25.09;100.00
7407;BME280;3745;56.964;24.128;2023-08-06T08:10:34;100571.38;;;25.04;100.00
7407;BME280;3745;56.964;24.128;2023-08-06T08:13:01;100584.34;;;25.21;100.00
7407;BME280;3745;56.964;24.128;2023-08-06T08:15:28;100574.28;;;25.15;100.00
7407;BME280;3745;56.964;24.128;2023-08-06T08:17:54;100584.03;;;25.27;100.00
7407;BME280;3745;56.964;24.128;2023-08-06T08:20:21;100587.38;;;25.29;100.00
7407;BME280;3745;56.964;24.128;2023-08-06T08:22:47;100536.81;;;25.05;100.00
7407;BME280;3745;56.964;24.128;2023-08-06T08:25:13;100574.72;;;25.41;100.00
7407;BME280;3745;56.964;24.128;2023-08-06T08:27:38;100563.34;;;25.43;100.00
7407;BME280;3745;56.964;24.128;2023-08-06T08:30:05;100553.81;;;25.44;100.00
7407;BME280;3745;56.964;24.128;2023-08-06T08:32:30;100563.44;;;25.59;100.00
7407;BME280;3745;56.964;24.128;2023-08-06T08:34:56;100573.50;;;25.80;100.00
7407;BME280;3745;56.964;24.128;2023-08-06T08:37:23;100562.13;;;25.99;100.00
7407;BME280;3745;56.964;24.128;2023-08-06T08:39:48;100546.25;;;26.05;100.00
7407;BME280;3745;56.964;24.128;2023-08-06T08:42:15;100560.00;;;26.22;100.00
7407;BME280;3745;56.964;24.128;2023-08-06T08:44:42;100529.50;;;26.10;100.00
7407;BME280;3745;56.964;24.128;2023-08-06T08:47:08;100537.19;;;26.27;100.00
7407;BME280;3745;56.964;24.128;2023-08-06T08:49:37;100558.78;;;26.44;100.00
7407;BME280;3745;56.964;24.128;2023-08-06T08:52:04;100549.56;;;26.54;100.00
7407;BME280;3745;56.964;24.128;2023-08-06T08:54:35;100551.91;;;26.58;100.00
7407;BME280;3745;56.964;24.128;2023-08-06T08:57:03;100533.13;;;26.69;100.00
7407;BME280;3745;56.964;24.128;2023-08-06T08:59:29;100531.72;;;26.93;100.00
7407;BME280;3745;56.964;24.128;2023-08-06T09:01:55;100525.25;;;27.00;100.00
7407;BME280;3745;56.964;24.128;2023-08-06T09:04:21;100463.22;;;26.80;100.00
7407;BME280;3745;56.964;24.128;2023-08-06T09:06:50;100490.75;;;27.12;100.00
7407;BME280;3745;56.964;24.128;2023-08-06T09:09:22;100409.00;;;26.60;100.00
7407;BME280;3745;56.964;24.128;2023-08-06T09:11:51;100496.88;;;27.25;100.00
7407;BME280;3745;56.964;24.128;2023-08-06T09:14:17;100481.28;;;27.25;100.00
7407;BME280;3745;56.964;24.128;2023-08-06T09:16:43;100381.94;;;26.78;100.00
7407;BME280;3745;56.964;24.128;2023-08-06T09:19:13;100458.81;;;27.24;100.00
7407;BME280;3745;56.964;24.128;2023-08-06T09:21:41;100449.72;;;27.31;100.00
7407;BME280;3745;56.964;24.128;2023-08-06T09:24:11;100457.72;;;27.42;100.00
7407;BME280;3745;56.964;24.128;2023-08-06T09:26:38;100426.50;;;27.14;100.00
7407;BME280;3745;56.964;24.128;2023-08-06T09:29:08;100485.91;;;27.63;100.00
7407;BME280;3745;56.964;24.128;2023-08-06T09:34:16;100471.97;;;27.64;100.00
7407;BME280;3745;56.964;24.128;2023-08-06T09:36:43;100433.88;;;27.63;100.00
7407;BME280;3745;56.964;24.128;2023-08-06T09:39:15;100431.44;;;27.74;100.00
7407;BME280;3745;56.964;24.128;2023-08-06T09:41:46;100458.47;;;28.12;100.00
7407;BME280;3745;56.964;24.128;2023-08-06T09:44:19;100433.28;;;28.13;100.00
7407;BME280;3745;56.964;24.128;2023-08-06T09:47:03;100447.91;;;28.40;100.00
7407;BME280;3745;56.964;24.128;2023-08-06T09:51:58;100448.88;;;28.52;100.00
7407;BME280;3745;56.964;24.128;2023-08-06T09:54:26;100430.75;;;28.50;100.00
7407;BME280;3745;56.964;24.128;2023-08-06T09:56:53;100439.06;;;28.70;100.00
7407;BME280;3745;56.964;24.128;2023-08-06T09:59:19;100433.84;;;28.70;100.00
7407;BME280;3745;56.964;24.128;2023-08-06T10:01:45;100418.50;;;28.78;100.00
7407;BME280;3745;56.964;24.128;2023-08-06T10:04:13;100410.47;;;28.81;100.00
7407;BME280;3745;56.964;24.128;2023-08-06T10:06:42;100414.84;;;28.93;100.00
7407;BME280;3745;56.964;24.128;2023-08-06T10:09:11;100411.50;;;29.16;100.00
7407;BME280;3745;56.964;24.128;2023-08-06T10:11:37;100414.19;;;29.27;100.00
7407;BME280;3745;56.964;24.128;2023-08-06T10:16:34;100399.31;;;29.53;100.00
7407;BME280;3745;56.964;24.128;2023-08-06T10:19:04;100336.19;;;29.24;100.00
7407;BME280;3745;56.964;24.128;2023-08-06T10:21:33;100392.38;;;29.65;100.00
7407;BME280;3745;56.964;24.128;2023-08-06T10:23:58;100389.22;;;29.72;100.00
7407;BME280;3745;56.964;24.128;2023-08-06T10:26:28;100344.03;;;29.48;100.00
7407;BME280;3745;56.964;24.128;2023-08-06T10:28:54;100386.63;;;29.96;100.00
7407;BME280;3745;56.964;24.128;2023-08-06T10:34:18;100361.25;;;30.09;100.00
7407;BME280;3745;56.964;24.128;2023-08-06T10:36:44;100364.38;;;30.14;100.00
7407;BME280;3745;56.964;24.128;2023-08-06T10:39:13;100366.16;;;30.25;100.00
7407;BME280;3745;56.964;24.128;2023-08-06T10:41:42;100364.63;;;30.33;100.00
7407;BME280;3745;56.964;24.128;2023-08-06T10:44:10;100331.88;;;30.29;100.00
7407;BME280;3745;56.964;24.128;2023-08-06T10:46:37;100353.31;;;30.68;100.00
7407;BME280;3745;56.964;24.128;2023-08-06T10:49:06;100312.44;;;30.55;100.00
7407;BME280;3745;56.964;24.128;2023-08-06T10:51:32;100352.38;;;30.91;100.00
7407;BME280;3745;56.964;24.128;2023-08-06T10:53:58;100310.53;;;30.80;100.00
7407;BME280;3745;56.964;24.128;2023-08-06T10:56:25;100317.44;;;30.81;100.00
7407;BME280;3745;56.964;24.128;2023-08-06T10:58:54;100324.56;;;30.90;100.00
7407;BME280;3745;56.964;24.128;2023-08-06T11:01:22;100338.22;;;31.04;100.00
7407;BME280;3745;56.964;24.128;2023-08-06T11:03:49;100336.69;;;31.02;100.00
7407;BME280;3745;56.964;24.128;2023-08-06T11:06:20;100307.91;;;30.91;100.00
7407;BME280;3745;56.964;24.128;2023-08-06T11:08:53;100315.28;;;31.08;100.00
7407;BME280;3745;56.964;24.128;2023-08-06T11:11:20;100290.56;;;30.90;100.00
7407;BME280;3745;56.964;24.128;2023-08-06T11:13:50;100312.22;;;31.03;100.00
7407;BME280;3745;56.964;24.128;2023-08-06T11:16:21;100301.06;;;31.01;100.00
7407;BME280;3745;56.964;24.128;2023-08-06T11:18:48;100316.47;;;31.15;100.00
7407;BME280;3745;56.964;24.128;2023-08-06T11:21:14;100241.38;;;30.84;100.00
7407;BME280;3745;56.964;24.128;2023-08-06T11:23:42;100302.44;;;31.16;100.00
7407;BME280;3745;56.964;24.128;2023-08-06T11:26:08;100290.06;;;31.18;100.00
7407;BME280;3745;56.964;24.128;2023-08-06T11:28:34;100287.34;;;31.51;100.00
7407;BME280;3745;56.964;24.128;2023-08-06T11:30:59;100281.03;;;31.54;100.00
7407;BME280;3745;56.964;24.128;2023-08-06T11:33:28;100295.47;;;31.69;100.00
7407;BME280;3745;56.964;24.128;2023-08-06T11:35:57;100300.16;;;31.65;100.00
7407;BME280;3745;56.964;24.128;2023-08-06T11:38:25;100271.97;;;31.58;100.00
7407;BME280;3745;56.964;24.128;2023-08-06T11:40:52;100272.81;;;31.47;100.00
7407;BME280;3745;56.964;24.128;2023-08-06T11:43:19;100278.34;;;31.33;100.00
7407;BME280;3745;56.964;24.128;2023-08-06T11:45:46;100252.28;;;31.11;100.00
7407;BME280;3745;56.964;24.128;2023-08-06T11:48:11;100233.28;;;31.09;100.00
7407;BME280;3745;56.964;24.128;2023-08-06T11:50:38;100259.59;;;31.28;100.00
7407;BME280;3745;56.964;24.128;2023-08-06T11:53:07;100272.38;;;31.42;100.00
7407;BME280;3745;56.964;24.128;2023-08-06T11:55:32;100219.25;;;31.10;100.00
7407;BME280;3745;56.964;24.128;2023-08-06T11:57:59;100265.47;;;31.41;100.00
7407;BME280;3745;56.964;24.128;2023-08-06T12:00:28;100264.50;;;31.53;100.00
7407;BME280;3745;56.964;24.128;2023-08-06T12:02:54;100266.16;;;31.54;100.00
7407;BME280;3745;56.964;24.128;2023-08-06T12:05:21;100259.50;;;31.50;100.00
7407;BME280;3745;56.964;24.128;2023-08-06T12:07:55;100215.88;;;31.19;100.00
7407;BME280;3745;56.964;24.128;2023-08-06T12:10:23;100242.91;;;31.40;100.00
7407;BME280;3745;56.964;24.128;2023-08-06T12:12:50;100247.88;;;31.43;100.00
7407;BME280;3745;56.964;24.128;2023-08-06T12:15:16;100244.53;;;31.41;100.00
7407;BME280;3745;56.964;24.128;2023-08-06T12:17:42;100241.81;;;31.43;100.00
7407;BME280;3745;56.964;24.128;2023-08-06T12:20:08;100237.91;;;31.37;100.00
7407;BME280;3745;56.964;24.128;2023-08-06T12:22:34;100238.50;;;31.41;100.00
7407;BME280;3745;56.964;24.128;2023-08-06T12:25:02;100227.72;;;31.34;100.00
7407;BME280;3745;56.964;24.128;2023-08-06T12:27:29;100195.66;;;31.21;100.00
7407;BME280;3745;56.964;24.128;2023-08-06T12:29:55;100201.81;;;31.31;100.00
7407;BME280;3745;56.964;24.128;2023-08-06T12:32:20;100167.56;;;31.23;100.00
7407;BME280;3745;56.964;24.128;2023-08-06T12:34:47;100204.09;;;31.45;100.00
7407;BME280;3745;56.964;24.128;2023-08-06T12:37:13;100214.31;;;31.48;100.00
7407;BME280;3745;56.964;24.128;2023-08-06T12:39:38;100212.41;;;31.50;100.00
7407;BME280;3745;56.964;24.128;2023-08-06T12:42:05;100185.59;;;31.37;100.00
7407;BME280;3745;56.964;24.128;2023-08-06T12:44:32;100211.91;;;31.56;100.00
7407;BME280;3745;56.964;24.128;2023-08-06T12:46:57;100194.47;;;31.46;100.00
7407;BME280;3745;56.964;24.128;2023-08-06T12:49:25;100211.38;;;31.62;100.00
7407;BME280;3745;56.964;24.128;2023-08-06T12:51:52;100180.09;;;31.40;100.00
7407;BME280;3745;56.964;24.128;2023-08-06T12:54:19;100165.53;;;31.47;100.00
7407;BME280;3745;56.964;24.128;2023-08-06T12:56:47;100196.31;;;31.76;100.00
7407;BME280;3745;56.964;24.128;2023-08-06T12:59:17;100163.69;;;31.49;100.00
7407;BME280;3745;56.964;24.128;2023-08-06T13:01:43;100174.63;;;31.43;100.00
7407;BME280;3745;56.964;24.128;2023-08-06T13:04:09;100194.31;;;31.58;100.00